AFL240 ULLI-UWGG
Flight info
| Callsign | AFL240 |
|---|---|
| Flight time | 1h 16m |
| Altitude | 35000 |
| Route | SUGIN T873 VUZPU T490 EZMUB T439 USTOK |
| Aircraft | A320/M-V/N |
Departure
| Time | 2026-04-26 17:45 |
|---|---|
| Airport | Pulkovo Airport (ULLI) |
Arrival
| Time | 2026-04-26 19:01 |
|---|---|
| Airport | Nizhny Novgorod / Strigino International Airport (UWGG) |
| Time | Latitude | Longitude | Altitude | Speed | Heading |
|---|---|---|---|---|---|
| 2026-04-26 17:16 | 59.79814 | 30.26654 | 81 ft | 0 kts | 107° |
| 2026-04-26 17:31 | 59.79816 | 30.26647 | 81 ft | 3 kts | 106° |
| 2026-04-26 17:31 | 59.79823 | 30.26596 | 81 ft | 4 kts | 105° |
| 2026-04-26 17:31 | 59.79830 | 30.26544 | 81 ft | 4 kts | 103° |
| 2026-04-26 17:32 | 59.79835 | 30.26492 | 81 ft | 4 kts | 95° |
| 2026-04-26 17:32 | 59.79833 | 30.26442 | 81 ft | 4 kts | 59° |
| 2026-04-26 17:32 | 59.79826 | 30.26424 | 81 ft | 0 kts | 17° |
| 2026-04-26 17:37 | 59.79864 | 30.26447 | 82 ft | 9 kts | 17° |
| 2026-04-26 17:37 | 59.79928 | 30.26487 | 81 ft | 13 kts | 17° |
| 2026-04-26 17:37 | 59.80046 | 30.26556 | 81 ft | 20 kts | 15° |
| 2026-04-26 17:38 | 59.80318 | 30.26715 | 82 ft | 13 kts | 17° |
| 2026-04-26 17:38 | 59.80395 | 30.26784 | 82 ft | 12 kts | 58° |
| 2026-04-26 17:38 | 59.80383 | 30.26946 | 85 ft | 15 kts | 106° |
| 2026-04-26 17:38 | 59.80351 | 30.27163 | 84 ft | 16 kts | 106° |
| 2026-04-26 17:39 | 59.80320 | 30.27372 | 82 ft | 19 kts | 106° |
| 2026-04-26 17:39 | 59.80281 | 30.27634 | 82 ft | 20 kts | 106° |
| 2026-04-26 17:39 | 59.80241 | 30.27900 | 84 ft | 20 kts | 108° |
| 2026-04-26 17:39 | 59.80201 | 30.28166 | 83 ft | 21 kts | 107° |
| 2026-04-26 17:40 | 59.80160 | 30.28442 | 71 ft | 21 kts | 106° |
| 2026-04-26 17:40 | 59.80132 | 30.28634 | 74 ft | 22 kts | 106° |
| 2026-04-26 17:40 | 59.80072 | 30.29028 | 78 ft | 23 kts | 107° |
| 2026-04-26 17:40 | 59.80025 | 30.29347 | 68 ft | 25 kts | 107° |
| 2026-04-26 17:41 | 59.79974 | 30.29678 | 76 ft | 19 kts | 107° |
| 2026-04-26 17:41 | 59.79961 | 30.29768 | 76 ft | 5 kts | 106° |
| 2026-04-26 17:41 | 59.79953 | 30.29822 | 68 ft | 4 kts | 106° |
| 2026-04-26 17:41 | 59.79946 | 30.29864 | 73 ft | 3 kts | 106° |
| 2026-04-26 17:42 | 59.79942 | 30.29895 | 76 ft | 2 kts | 106° |
| 2026-04-26 17:42 | 59.79939 | 30.29914 | 76 ft | 1 kts | 105° |
| 2026-04-26 17:42 | 59.79936 | 30.29975 | 76 ft | 10 kts | 89° |
| 2026-04-26 17:42 | 59.79969 | 30.30087 | 73 ft | 10 kts | 49° |
| 2026-04-26 17:43 | 59.80013 | 30.30187 | 76 ft | 10 kts | 48° |
| 2026-04-26 17:43 | 59.80070 | 30.30274 | 72 ft | 11 kts | 20° |
| 2026-04-26 17:43 | 59.80121 | 30.30219 | 72 ft | 8 kts | 295° |
| 2026-04-26 17:43 | 59.80130 | 30.30169 | 75 ft | 0 kts | 286° |
| 2026-04-26 17:44 | 59.80131 | 30.30164 | 72 ft | 5 kts | 286° |
| 2026-04-26 17:44 | 59.80212 | 30.29635 | 77 ft | 83 kts | 287° |
| 2026-04-26 17:44 | 59.80440 | 30.28041 | 81 ft | 153 kts | 287° |
| 2026-04-26 17:44 | 59.80754 | 30.25844 | 642 ft | 167 kts | 288° |
| 2026-04-26 17:45 | 59.81006 | 30.23597 | 1640 ft | 164 kts | 287° |
| 2026-04-26 17:45 | 59.81295 | 30.21325 | 2223 ft | 176 kts | 294° |
| 2026-04-26 17:45 | 59.81668 | 30.18978 | 2462 ft | 186 kts | 296° |
| 2026-04-26 17:45 | 59.82088 | 30.16456 | 2727 ft | 206 kts | 296° |
| 2026-04-26 17:46 | 59.82533 | 30.13718 | 3297 ft | 214 kts | 296° |
| 2026-04-26 17:46 | 59.82971 | 30.10863 | 3960 ft | 217 kts | 294° |
| 2026-04-26 17:46 | 59.83422 | 30.08001 | 4515 ft | 230 kts | 294° |
| 2026-04-26 17:46 | 59.83908 | 30.04907 | 5461 ft | 238 kts | 295° |
| 2026-04-26 17:47 | 59.84277 | 30.01693 | 6343 ft | 244 kts | 275° |
| 2026-04-26 17:47 | 59.84081 | 29.99346 | 6895 ft | 277 kts | 252° |
| 2026-04-26 17:47 | 59.82365 | 29.95511 | 8125 ft | 280 kts | 214° |
| 2026-04-26 17:47 | 59.80568 | 29.94034 | 8412 ft | 283 kts | 197° |
| 2026-04-26 17:48 | 59.78665 | 29.93101 | 8545 ft | 280 kts | 191° |
| 2026-04-26 17:48 | 59.76732 | 29.92583 | 8591 ft | 283 kts | 171° |
| 2026-04-26 17:48 | 59.74862 | 29.93540 | 8767 ft | 286 kts | 152° |
| 2026-04-26 17:48 | 59.73273 | 29.95992 | 9195 ft | 292 kts | 124° |
| 2026-04-26 17:49 | 59.72326 | 29.99539 | 9772 ft | 293 kts | 104° |
| 2026-04-26 17:49 | 59.71659 | 30.03542 | 10089 ft | 314 kts | 105° |
| 2026-04-26 17:49 | 59.70961 | 30.07830 | 10263 ft | 339 kts | 103° |
| 2026-04-26 17:49 | 59.70207 | 30.12375 | 10479 ft | 353 kts | 104° |
| 2026-04-26 17:50 | 59.69405 | 30.17092 | 11066 ft | 366 kts | 104° |
| 2026-04-26 17:50 | 59.68595 | 30.21820 | 11657 ft | 365 kts | 105° |
| 2026-04-26 17:50 | 59.67806 | 30.26516 | 12228 ft | 365 kts | 106° |
| 2026-04-26 17:50 | 59.66980 | 30.31292 | 12746 ft | 372 kts | 107° |
| 2026-04-26 17:51 | 59.66142 | 30.36130 | 13320 ft | 370 kts | 107° |
| 2026-04-26 17:51 | 59.65315 | 30.40951 | 13756 ft | 375 kts | 105° |
| 2026-04-26 17:51 | 59.64445 | 30.45916 | 14383 ft | 386 kts | 106° |
| 2026-04-26 17:51 | 59.63565 | 30.50959 | 15111 ft | 392 kts | 107° |
| 2026-04-26 17:52 | 59.62692 | 30.56072 | 15892 ft | 392 kts | 106° |
| 2026-04-26 17:52 | 59.61804 | 30.61183 | 16496 ft | 395 kts | 106° |
| 2026-04-26 17:52 | 59.60920 | 30.66278 | 16960 ft | 392 kts | 107° |
| 2026-04-26 17:52 | 59.60038 | 30.71401 | 17389 ft | 395 kts | 105° |
| 2026-04-26 17:53 | 59.59142 | 30.76562 | 17821 ft | 399 kts | 106° |
| 2026-04-26 17:53 | 59.58248 | 30.81685 | 18259 ft | 402 kts | 106° |
| 2026-04-26 17:53 | 59.57339 | 30.86925 | 18677 ft | 403 kts | 105° |
| 2026-04-26 17:54 | 59.55493 | 30.97417 | 19440 ft | 406 kts | 107° |
| 2026-04-26 17:54 | 59.54552 | 31.02700 | 19836 ft | 410 kts | 108° |
| 2026-04-26 17:54 | 59.53602 | 31.08023 | 20266 ft | 413 kts | 107° |
| 2026-04-26 17:54 | 59.52648 | 31.13358 | 20682 ft | 414 kts | 108° |
| 2026-04-26 17:55 | 59.51701 | 31.18660 | 21089 ft | 418 kts | 108° |
| 2026-04-26 17:55 | 59.50738 | 31.24068 | 21524 ft | 419 kts | 108° |
| 2026-04-26 17:55 | 59.49765 | 31.29493 | 21931 ft | 421 kts | 108° |
| 2026-04-26 17:55 | 59.48783 | 31.34942 | 22321 ft | 423 kts | 108° |
| 2026-04-26 17:56 | 59.47795 | 31.40404 | 22687 ft | 424 kts | 109° |
| 2026-04-26 17:56 | 59.45796 | 31.51390 | 23392 ft | 429 kts | 109° |
| 2026-04-26 17:57 | 59.43769 | 31.62478 | 24091 ft | 432 kts | 109° |
| 2026-04-26 17:57 | 59.42751 | 31.68051 | 24422 ft | 434 kts | 109° |
| 2026-04-26 17:57 | 59.41742 | 31.73574 | 24710 ft | 437 kts | 109° |
| 2026-04-26 17:57 | 59.40706 | 31.79207 | 25000 ft | 440 kts | 109° |
| 2026-04-26 17:58 | 59.37540 | 31.96266 | 25846 ft | 447 kts | 110° |
| 2026-04-26 17:59 | 59.35391 | 32.07771 | 26423 ft | 450 kts | 111° |
| 2026-04-26 17:59 | 59.34310 | 32.13535 | 26729 ft | 451 kts | 111° |
| 2026-04-26 17:59 | 59.33220 | 32.19333 | 26921 ft | 456 kts | 111° |
| 2026-04-26 17:59 | 59.32135 | 32.25097 | 27134 ft | 459 kts | 111° |
| 2026-04-26 18:00 | 59.31024 | 32.30972 | 27360 ft | 461 kts | 112° |
| 2026-04-26 18:00 | 59.29904 | 32.36861 | 27674 ft | 461 kts | 112° |
| 2026-04-26 18:00 | 59.28778 | 32.42744 | 28013 ft | 462 kts | 112° |
| 2026-04-26 18:00 | 59.27651 | 32.48615 | 28346 ft | 461 kts | 112° |
| 2026-04-26 18:01 | 59.26522 | 32.54498 | 28663 ft | 462 kts | 112° |
| 2026-04-26 18:01 | 59.25392 | 32.60380 | 28995 ft | 462 kts | 112° |
| 2026-04-26 18:01 | 59.24262 | 32.66257 | 29310 ft | 462 kts | 112° |
| 2026-04-26 18:01 | 59.23131 | 32.72127 | 29609 ft | 462 kts | 112° |
| 2026-04-26 18:02 | 59.22009 | 32.77924 | 29911 ft | 462 kts | 112° |
| 2026-04-26 18:02 | 59.21238 | 32.81886 | 30116 ft | 462 kts | 113° |
| 2026-04-26 18:02 | 59.19719 | 32.89652 | 30500 ft | 463 kts | 113° |
| 2026-04-26 18:02 | 59.18568 | 32.95514 | 30786 ft | 463 kts | 113° |
| 2026-04-26 18:03 | 59.17414 | 33.01385 | 31083 ft | 464 kts | 113° |
| 2026-04-26 18:03 | 59.16260 | 33.07255 | 31382 ft | 464 kts | 113° |
| 2026-04-26 18:03 | 59.15110 | 33.13117 | 31662 ft | 464 kts | 113° |
| 2026-04-26 18:03 | 59.13954 | 33.18981 | 31951 ft | 464 kts | 113° |
| 2026-04-26 18:04 | 59.12792 | 33.24841 | 32228 ft | 464 kts | 113° |
| 2026-04-26 18:04 | 59.11640 | 33.30617 | 32506 ft | 464 kts | 113° |
| 2026-04-26 18:04 | 59.10472 | 33.36471 | 32793 ft | 465 kts | 113° |
| 2026-04-26 18:05 | 59.08126 | 33.48162 | 33351 ft | 464 kts | 114° |
| 2026-04-26 18:05 | 59.06945 | 33.54004 | 33627 ft | 464 kts | 113° |
| 2026-04-26 18:05 | 59.05766 | 33.59846 | 33899 ft | 464 kts | 113° |
| 2026-04-26 18:05 | 59.04586 | 33.65686 | 34171 ft | 465 kts | 114° |
| 2026-04-26 18:06 | 59.03400 | 33.71516 | 34425 ft | 464 kts | 114° |
| 2026-04-26 18:06 | 59.02206 | 33.77350 | 34555 ft | 466 kts | 114° |
| 2026-04-26 18:06 | 59.00999 | 33.83220 | 34588 ft | 470 kts | 113° |
| 2026-04-26 18:07 | 58.98596 | 33.94917 | 34583 ft | 470 kts | 114° |
| 2026-04-26 18:07 | 58.96166 | 34.06680 | 34572 ft | 470 kts | 114° |
| 2026-04-26 18:08 | 58.93731 | 34.18424 | 34564 ft | 469 kts | 114° |
| 2026-04-26 18:08 | 58.91285 | 34.30133 | 34507 ft | 469 kts | 115° |
| 2026-04-26 18:09 | 58.88832 | 34.41798 | 34503 ft | 468 kts | 115° |
| 2026-04-26 18:09 | 58.86382 | 34.53387 | 34500 ft | 469 kts | 115° |
| 2026-04-26 18:10 | 58.83913 | 34.65035 | 34498 ft | 468 kts | 114° |
| 2026-04-26 18:10 | 58.81429 | 34.76651 | 34498 ft | 468 kts | 115° |
| 2026-04-26 18:11 | 58.78931 | 34.88254 | 34498 ft | 468 kts | 115° |
| 2026-04-26 18:11 | 58.76427 | 34.99814 | 34499 ft | 467 kts | 115° |
| 2026-04-26 18:12 | 58.73942 | 35.11284 | 34494 ft | 467 kts | 115° |
| 2026-04-26 18:12 | 58.71425 | 35.22825 | 34492 ft | 468 kts | 115° |
| 2026-04-26 18:13 | 58.68893 | 35.34352 | 34491 ft | 467 kts | 116° |
| 2026-04-26 18:13 | 58.66352 | 35.45833 | 34491 ft | 466 kts | 116° |
| 2026-04-26 18:14 | 58.63817 | 35.57182 | 34481 ft | 465 kts | 116° |
| 2026-04-26 18:14 | 58.61261 | 35.68624 | 34480 ft | 471 kts | 116° |
| 2026-04-26 18:15 | 58.58648 | 35.80255 | 34479 ft | 477 kts | 116° |
| 2026-04-26 18:15 | 58.55833 | 35.91769 | 34468 ft | 477 kts | 120° |
| 2026-04-26 18:16 | 58.52822 | 36.02952 | 34466 ft | 476 kts | 120° |
| 2026-04-26 18:16 | 58.48249 | 36.19801 | 34454 ft | 473 kts | 121° |
| 2026-04-26 18:17 | 58.45258 | 36.31031 | 34452 ft | 477 kts | 121° |
| 2026-04-26 18:17 | 58.42287 | 36.42224 | 34448 ft | 475 kts | 120° |
| 2026-04-26 18:18 | 58.39304 | 36.53438 | 34437 ft | 472 kts | 120° |
| 2026-04-26 18:18 | 58.36270 | 36.64598 | 34443 ft | 475 kts | 122° |
| 2026-04-26 18:19 | 58.33203 | 36.75762 | 34445 ft | 473 kts | 121° |
| 2026-04-26 18:19 | 58.30162 | 36.86830 | 34425 ft | 474 kts | 121° |
| 2026-04-26 18:20 | 58.27154 | 36.97842 | 34417 ft | 473 kts | 121° |
| 2026-04-26 18:20 | 58.24645 | 37.07049 | 34413 ft | 472 kts | 120° |
| 2026-04-26 18:21 | 58.21079 | 37.19909 | 34413 ft | 473 kts | 121° |
| 2026-04-26 18:21 | 58.18013 | 37.30923 | 34414 ft | 472 kts | 121° |
| 2026-04-26 18:22 | 58.14947 | 37.41806 | 34427 ft | 472 kts | 121° |
| 2026-04-26 18:22 | 58.11861 | 37.52801 | 34430 ft | 471 kts | 122° |
| 2026-04-26 18:23 | 58.08801 | 37.63681 | 34430 ft | 469 kts | 123° |
| 2026-04-26 18:23 | 58.05694 | 37.74549 | 34396 ft | 469 kts | 122° |
| 2026-04-26 18:24 | 58.02605 | 37.85287 | 34391 ft | 462 kts | 122° |
| 2026-04-26 18:24 | 57.99510 | 37.96108 | 34403 ft | 472 kts | 121° |
| 2026-04-26 18:25 | 57.96434 | 38.06869 | 34385 ft | 465 kts | 120° |
| 2026-04-26 18:25 | 57.93337 | 38.17608 | 34380 ft | 473 kts | 123° |
| 2026-04-26 18:26 | 57.90199 | 38.28274 | 34410 ft | 463 kts | 123° |
| 2026-04-26 18:26 | 57.87057 | 38.38951 | 34393 ft | 471 kts | 121° |
| 2026-04-26 18:27 | 57.83943 | 38.49729 | 34379 ft | 472 kts | 122° |
| 2026-04-26 18:27 | 57.80756 | 38.60531 | 34386 ft | 475 kts | 123° |
| 2026-04-26 18:28 | 57.77553 | 38.71328 | 34403 ft | 473 kts | 123° |
| 2026-04-26 18:28 | 57.74372 | 38.82010 | 34399 ft | 472 kts | 123° |
| 2026-04-26 18:29 | 57.71178 | 38.92754 | 34381 ft | 476 kts | 124° |
| 2026-04-26 18:29 | 57.67958 | 39.03494 | 34378 ft | 471 kts | 124° |
| 2026-04-26 18:30 | 57.64710 | 39.14275 | 34398 ft | 480 kts | 124° |
| 2026-04-26 18:30 | 57.61433 | 39.25014 | 34411 ft | 478 kts | 124° |
| 2026-04-26 18:31 | 57.58139 | 39.35811 | 34392 ft | 480 kts | 124° |
| 2026-04-26 18:31 | 57.54836 | 39.46631 | 34399 ft | 481 kts | 123° |
| 2026-04-26 18:32 | 57.51520 | 39.57442 | 34406 ft | 482 kts | 124° |
| 2026-04-26 18:32 | 57.48191 | 39.68224 | 34395 ft | 480 kts | 124° |
| 2026-04-26 18:33 | 57.44869 | 39.78930 | 34408 ft | 482 kts | 124° |
| 2026-04-26 18:33 | 57.41521 | 39.89716 | 34404 ft | 481 kts | 124° |
| 2026-04-26 18:34 | 57.38158 | 40.00446 | 34402 ft | 481 kts | 124° |
| 2026-04-26 18:34 | 57.34783 | 40.11152 | 34407 ft | 482 kts | 124° |
| 2026-04-26 18:35 | 57.31246 | 40.21650 | 34400 ft | 479 kts | 128° |
| 2026-04-26 18:35 | 57.27456 | 40.31689 | 34392 ft | 479 kts | 130° |
| 2026-04-26 18:36 | 57.23604 | 40.41727 | 34386 ft | 480 kts | 129° |
| 2026-04-26 18:36 | 57.19797 | 40.51866 | 34389 ft | 480 kts | 129° |
| 2026-04-26 18:37 | 57.16034 | 40.62006 | 34383 ft | 479 kts | 129° |
| 2026-04-26 18:37 | 57.12285 | 40.72038 | 34375 ft | 478 kts | 129° |
| 2026-04-26 18:38 | 57.08496 | 40.82096 | 34397 ft | 478 kts | 129° |
| 2026-04-26 18:38 | 57.04685 | 40.92130 | 34392 ft | 479 kts | 129° |
| 2026-04-26 18:39 | 57.00855 | 41.02171 | 34394 ft | 480 kts | 130° |
| 2026-04-26 18:39 | 56.97040 | 41.12136 | 34400 ft | 481 kts | 130° |
| 2026-04-26 18:40 | 56.93191 | 41.22149 | 34403 ft | 481 kts | 130° |
| 2026-04-26 18:40 | 56.89337 | 41.32160 | 34408 ft | 481 kts | 130° |
| 2026-04-26 18:41 | 56.85481 | 41.42146 | 34412 ft | 481 kts | 130° |
| 2026-04-26 18:41 | 56.81616 | 41.52107 | 34411 ft | 481 kts | 130° |
| 2026-04-26 18:42 | 56.77760 | 41.61979 | 34419 ft | 481 kts | 130° |
| 2026-04-26 18:42 | 56.73875 | 41.71899 | 34425 ft | 480 kts | 131° |
| 2026-04-26 18:43 | 56.69982 | 41.81776 | 34429 ft | 480 kts | 131° |
| 2026-04-26 18:43 | 56.66129 | 41.91549 | 34446 ft | 468 kts | 131° |
| 2026-04-26 18:44 | 56.62374 | 42.01030 | 34140 ft | 463 kts | 131° |
| 2026-04-26 18:44 | 56.60483 | 42.05766 | 33900 ft | 463 kts | 132° |
| 2026-04-26 18:44 | 56.58589 | 42.10505 | 33210 ft | 466 kts | 132° |
| 2026-04-26 18:45 | 56.56673 | 42.15295 | 32214 ft | 472 kts | 133° |
| 2026-04-26 18:45 | 56.54737 | 42.20128 | 31212 ft | 477 kts | 132° |
| 2026-04-26 18:45 | 56.52788 | 42.24991 | 30458 ft | 475 kts | 133° |
| 2026-04-26 18:45 | 56.50855 | 42.29817 | 29566 ft | 474 kts | 133° |
| 2026-04-26 18:46 | 56.48910 | 42.34660 | 28577 ft | 476 kts | 133° |
| 2026-04-26 18:46 | 56.46955 | 42.39516 | 27554 ft | 479 kts | 133° |
| 2026-04-26 18:46 | 56.45018 | 42.44322 | 26489 ft | 480 kts | 132° |
| 2026-04-26 18:46 | 56.43044 | 42.49210 | 25325 ft | 482 kts | 132° |
| 2026-04-26 18:47 | 56.41056 | 42.54096 | 24222 ft | 483 kts | 132° |
| 2026-04-26 18:47 | 56.39073 | 42.58965 | 23236 ft | 480 kts | 131° |
| 2026-04-26 18:47 | 56.37105 | 42.63798 | 22359 ft | 475 kts | 131° |
| 2026-04-26 18:47 | 56.35165 | 42.68562 | 21584 ft | 468 kts | 131° |
| 2026-04-26 18:48 | 56.33239 | 42.73283 | 20879 ft | 473 kts | 131° |
| 2026-04-26 18:48 | 56.31298 | 42.78014 | 21030 ft | 456 kts | 131° |
| 2026-04-26 18:48 | 56.29512 | 42.82410 | 21392 ft | 426 kts | 131° |
| 2026-04-26 18:48 | 56.27822 | 42.86602 | 21373 ft | 406 kts | 131° |
| 2026-04-26 18:49 | 56.26134 | 42.90722 | 20272 ft | 414 kts | 132° |
| 2026-04-26 18:49 | 56.24382 | 42.94925 | 19019 ft | 425 kts | 131° |
| 2026-04-26 18:49 | 56.22581 | 42.99207 | 17897 ft | 431 kts | 131° |
| 2026-04-26 18:49 | 56.20784 | 43.03490 | 17086 ft | 429 kts | 131° |
| 2026-04-26 18:50 | 56.19003 | 43.07753 | 16356 ft | 425 kts | 130° |
| 2026-04-26 18:50 | 56.17249 | 43.11969 | 15633 ft | 419 kts | 130° |
| 2026-04-26 18:50 | 56.15686 | 43.16374 | 14902 ft | 420 kts | 120° |
| 2026-04-26 18:50 | 56.14728 | 43.21244 | 14180 ft | 423 kts | 107° |
| 2026-04-26 18:51 | 56.14430 | 43.26498 | 13454 ft | 426 kts | 92° |
| 2026-04-26 18:51 | 56.14800 | 43.31718 | 12316 ft | 422 kts | 79° |
| 2026-04-26 18:51 | 56.15617 | 43.36752 | 11071 ft | 417 kts | 77° |
| 2026-04-26 18:51 | 56.16435 | 43.41612 | 10605 ft | 397 kts | 77° |
| 2026-04-26 18:52 | 56.17216 | 43.46261 | 10462 ft | 382 kts | 78° |
| 2026-04-26 18:52 | 56.17713 | 43.49252 | 10374 ft | 372 kts | 78° |
| 2026-04-26 18:52 | 56.18656 | 43.54957 | 10186 ft | 338 kts | 78° |
| 2026-04-26 18:52 | 56.19305 | 43.58866 | 9948 ft | 317 kts | 78° |
| 2026-04-26 18:53 | 56.19911 | 43.62573 | 9523 ft | 310 kts | 79° |
| 2026-04-26 18:53 | 56.20505 | 43.66305 | 9367 ft | 311 kts | 80° |
| 2026-04-26 18:53 | 56.21098 | 43.70033 | 9233 ft | 310 kts | 79° |
| 2026-04-26 18:53 | 56.21690 | 43.73747 | 9116 ft | 309 kts | 80° |
| 2026-04-26 18:54 | 56.22370 | 43.77418 | 8991 ft | 313 kts | 70° |
| 2026-04-26 18:54 | 56.23487 | 43.80825 | 8813 ft | 319 kts | 60° |
| 2026-04-26 18:54 | 56.24731 | 43.84135 | 8371 ft | 320 kts | 60° |
| 2026-04-26 18:54 | 56.25984 | 43.87465 | 7904 ft | 322 kts | 60° |
| 2026-04-26 18:55 | 56.27220 | 43.90748 | 7414 ft | 320 kts | 60° |
| 2026-04-26 18:55 | 56.28450 | 43.94025 | 6947 ft | 311 kts | 60° |
| 2026-04-26 18:55 | 56.29657 | 43.97192 | 6487 ft | 303 kts | 56° |
| 2026-04-26 18:55 | 56.31271 | 43.99563 | 6029 ft | 301 kts | 23° |
| 2026-04-26 18:56 | 56.33287 | 44.00099 | 5584 ft | 293 kts | 347° |
| 2026-04-26 18:56 | 56.35115 | 43.98728 | 5028 ft | 280 kts | 313° |
| 2026-04-26 18:56 | 56.36289 | 43.96145 | 4611 ft | 256 kts | 289° |
| 2026-04-26 18:56 | 56.36857 | 43.93278 | 4505 ft | 234 kts | 271° |
| 2026-04-26 18:57 | 56.36927 | 43.90480 | 4227 ft | 221 kts | 255° |
| 2026-04-26 18:57 | 56.36849 | 43.89563 | 4142 ft | 218 kts | 249° |
| 2026-04-26 18:57 | 56.35833 | 43.85541 | 3298 ft | 210 kts | 225° |
| 2026-04-26 18:57 | 56.34807 | 43.83761 | 2739 ft | 200 kts | 208° |
| 2026-04-26 18:58 | 56.33613 | 43.82609 | 2271 ft | 189 kts | 196° |
| 2026-04-26 18:58 | 56.32383 | 43.82030 | 1954 ft | 177 kts | 188° |
| 2026-04-26 18:58 | 56.31225 | 43.81603 | 1702 ft | 164 kts | 189° |
| 2026-04-26 18:58 | 56.30160 | 43.81209 | 1492 ft | 149 kts | 189° |
| 2026-04-26 18:59 | 56.29166 | 43.80843 | 1252 ft | 143 kts | 191° |
| 2026-04-26 18:59 | 56.28213 | 43.80486 | 1122 ft | 141 kts | 189° |
| 2026-04-26 18:59 | 56.27250 | 43.80176 | 928 ft | 140 kts | 188° |
| 2026-04-26 18:59 | 56.26299 | 43.79806 | 691 ft | 140 kts | 193° |
| 2026-04-26 19:00 | 56.25351 | 43.79439 | 535 ft | 139 kts | 189° |
| 2026-04-26 19:00 | 56.24399 | 43.79105 | 371 ft | 139 kts | 190° |
| 2026-04-26 19:00 | 56.23479 | 43.78769 | 266 ft | 123 kts | 192° |
| 2026-04-26 19:00 | 56.22798 | 43.78516 | 266 ft | 75 kts | 191° |
| 2026-04-26 19:01 | 56.22434 | 43.78384 | 266 ft | 42 kts | 191° |
| 2026-04-26 19:01 | 56.22165 | 43.78287 | 266 ft | 35 kts | 192° |
| 2026-04-26 19:01 | 56.22015 | 43.78229 | 267 ft | 13 kts | 193° |
| 2026-04-26 19:01 | 56.21948 | 43.78300 | 267 ft | 13 kts | 109° |
| 2026-04-26 19:02 | 56.21927 | 43.78461 | 266 ft | 14 kts | 101° |
| 2026-04-26 19:02 | 56.21913 | 43.78610 | 266 ft | 8 kts | 87° |
| 2026-04-26 19:02 | 56.21929 | 43.78695 | 266 ft | 6 kts | 75° |
| 2026-04-26 19:02 | 56.21930 | 43.78722 | 266 ft | 6 kts | 89° |
| 2026-04-26 19:03 | 56.21921 | 43.78825 | 266 ft | 4 kts | 100° |
| 2026-04-26 19:03 | 56.21917 | 43.78865 | 266 ft | 0 kts | 100° |